sensor_id;sensor_type;location;lat;lon;timestamp;P1;durP1;ratioP1;P2;durP2;ratioP2
19414;SDS011;9843;48.882;12.592;2023-05-19T00:02:15;10.13;;;5.60;;
19414;SDS011;9843;48.882;12.592;2023-05-19T00:04:46;10.00;;;5.83;;
19414;SDS011;9843;48.882;12.592;2023-05-19T00:07:13;6.87;;;5.10;;
19414;SDS011;9843;48.882;12.592;2023-05-19T00:09:42;8.73;;;6.33;;
19414;SDS011;9843;48.882;12.592;2023-05-19T00:12:10;11.47;;;5.87;;
19414;SDS011;9843;48.882;12.592;2023-05-19T00:14:37;6.60;;;5.87;;
19414;SDS011;9843;48.882;12.592;2023-05-19T00:17:05;6.87;;;5.50;;
19414;SDS011;9843;48.882;12.592;2023-05-19T00:19:32;12.70;;;7.63;;
19414;SDS011;9843;48.882;12.592;2023-05-19T00:22:00;8.97;;;6.07;;
19414;SDS011;9843;48.882;12.592;2023-05-19T00:24:27;9.90;;;6.80;;
19414;SDS011;9843;48.882;12.592;2023-05-19T00:26:54;6.17;;;5.33;;
19414;SDS011;9843;48.882;12.592;2023-05-19T00:29:21;7.53;;;5.43;;
19414;SDS011;9843;48.882;12.592;2023-05-19T00:31:48;13.80;;;8.63;;
19414;SDS011;9843;48.882;12.592;2023-05-19T00:34:15;6.00;;;5.40;;
19414;SDS011;9843;48.882;12.592;2023-05-19T00:36:43;7.37;;;5.57;;
19414;SDS011;9843;48.882;12.592;2023-05-19T00:39:12;6.33;;;5.73;;
19414;SDS011;9843;48.882;12.592;2023-05-19T00:41:39;10.13;;;6.27;;
19414;SDS011;9843;48.882;12.592;2023-05-19T00:44:06;8.47;;;6.27;;
19414;SDS011;9843;48.882;12.592;2023-05-19T00:46:33;7.10;;;6.23;;
19414;SDS011;9843;48.882;12.592;2023-05-19T00:49:01;8.57;;;5.80;;
19414;SDS011;9843;48.882;12.592;2023-05-19T00:51:28;11.47;;;7.53;;
19414;SDS011;9843;48.882;12.592;2023-05-19T00:53:56;7.90;;;6.47;;
19414;SDS011;9843;48.882;12.592;2023-05-19T00:56:24;8.47;;;6.17;;
19414;SDS011;9843;48.882;12.592;2023-05-19T00:58:51;8.37;;;5.40;;
19414;SDS011;9843;48.882;12.592;2023-05-19T01:01:19;7.87;;;5.97;;
19414;SDS011;9843;48.882;12.592;2023-05-19T01:03:46;10.83;;;5.97;;
19414;SDS011;9843;48.882;12.592;2023-05-19T01:06:13;11.03;;;5.70;;
19414;SDS011;9843;48.882;12.592;2023-05-19T01:08:43;9.37;;;5.80;;
19414;SDS011;9843;48.882;12.592;2023-05-19T01:11:11;8.43;;;5.73;;
19414;SDS011;9843;48.882;12.592;2023-05-19T01:13:39;6.80;;;5.73;;
19414;SDS011;9843;48.882;12.592;2023-05-19T01:16:08;6.40;;;5.10;;
19414;SDS011;9843;48.882;12.592;2023-05-19T01:18:46;6.90;;;5.10;;
19414;SDS011;9843;48.882;12.592;2023-05-19T01:24:22;6.97;;;5.27;;
19414;SDS011;9843;48.882;12.592;2023-05-19T01:27:00;10.73;;;5.63;;
19414;SDS011;9843;48.882;12.592;2023-05-19T01:29:43;7.53;;;5.43;;
19414;SDS011;9843;48.882;12.592;2023-05-19T01:32:22;6.97;;;4.93;;
19414;SDS011;9843;48.882;12.592;2023-05-19T01:34:49;7.93;;;5.13;;
19414;SDS011;9843;48.882;12.592;2023-05-19T01:37:16;4.87;;;4.47;;
19414;SDS011;9843;48.882;12.592;2023-05-19T01:39:44;14.10;;;5.17;;
19414;SDS011;9843;48.882;12.592;2023-05-19T01:42:12;7.90;;;5.50;;
19414;SDS011;9843;48.882;12.592;2023-05-19T01:44:40;10.97;;;5.50;;
19414;SDS011;9843;48.882;12.592;2023-05-19T01:47:08;6.43;;;5.73;;
19414;SDS011;9843;48.882;12.592;2023-05-19T01:49:36;11.23;;;6.20;;
19414;SDS011;9843;48.882;12.592;2023-05-19T01:52:04;7.90;;;5.83;;
19414;SDS011;9843;48.882;12.592;2023-05-19T01:54:31;7.93;;;5.77;;
19414;SDS011;9843;48.882;12.592;2023-05-19T01:56:59;9.53;;;5.63;;
19414;SDS011;9843;48.882;12.592;2023-05-19T01:59:34;5.40;;;4.90;;
19414;SDS011;9843;48.882;12.592;2023-05-19T02:02:04;7.87;;;5.10;;
19414;SDS011;9843;48.882;12.592;2023-05-19T02:04:35;10.57;;;6.60;;
19414;SDS011;9843;48.882;12.592;2023-05-19T02:07:09;9.50;;;5.60;;
19414;SDS011;9843;48.882;12.592;2023-05-19T02:09:40;13.80;;;6.83;;
19414;SDS011;9843;48.882;12.592;2023-05-19T02:12:10;8.83;;;6.57;;
19414;SDS011;9843;48.882;12.592;2023-05-19T02:14:39;9.47;;;5.50;;
19414;SDS011;9843;48.882;12.592;2023-05-19T02:17:07;6.40;;;4.73;;
19414;SDS011;9843;48.882;12.592;2023-05-19T02:19:36;8.40;;;6.50;;
19414;SDS011;9843;48.882;12.592;2023-05-19T02:22:03;13.07;;;6.67;;
19414;SDS011;9843;48.882;12.592;2023-05-19T02:24:32;17.20;;;7.63;;
19414;SDS011;9843;48.882;12.592;2023-05-19T02:27:00;15.87;;;6.67;;
19414;SDS011;9843;48.882;12.592;2023-05-19T02:29:27;18.93;;;5.90;;
19414;SDS011;9843;48.882;12.592;2023-05-19T02:31:54;9.60;;;5.60;;
19414;SDS011;9843;48.882;12.592;2023-05-19T02:34:21;15.50;;;6.13;;
19414;SDS011;9843;48.882;12.592;2023-05-19T02:36:48;10.70;;;6.33;;
19414;SDS011;9843;48.882;12.592;2023-05-19T02:39:15;7.33;;;5.93;;
19414;SDS011;9843;48.882;12.592;2023-05-19T02:41:44;8.03;;;5.50;;
19414;SDS011;9843;48.882;12.592;2023-05-19T02:44:11;5.87;;;4.97;;
19414;SDS011;9843;48.882;12.592;2023-05-19T02:46:38;12.63;;;5.03;;
19414;SDS011;9843;48.882;12.592;2023-05-19T02:49:06;5.77;;;4.47;;
19414;SDS011;9843;48.882;12.592;2023-05-19T02:51:33;18.30;;;6.83;;
19414;SDS011;9843;48.882;12.592;2023-05-19T02:54:00;8.03;;;5.47;;
19414;SDS011;9843;48.882;12.592;2023-05-19T02:56:27;13.83;;;5.83;;
19414;SDS011;9843;48.882;12.592;2023-05-19T02:58:55;8.17;;;5.50;;
19414;SDS011;9843;48.882;12.592;2023-05-19T03:01:23;12.90;;;5.43;;
19414;SDS011;9843;48.882;12.592;2023-05-19T03:03:50;7.30;;;4.97;;
19414;SDS011;9843;48.882;12.592;2023-05-19T03:06:17;13.80;;;5.53;;
19414;SDS011;9843;48.882;12.592;2023-05-19T03:08:47;12.13;;;5.50;;
19414;SDS011;9843;48.882;12.592;2023-05-19T03:11:14;15.13;;;6.87;;
19414;SDS011;9843;48.882;12.592;2023-05-19T03:13:41;10.60;;;5.70;;
19414;SDS011;9843;48.882;12.592;2023-05-19T03:16:10;6.97;;;5.23;;
19414;SDS011;9843;48.882;12.592;2023-05-19T03:18:37;8.17;;;5.03;;
19414;SDS011;9843;48.882;12.592;2023-05-19T03:21:05;5.47;;;4.50;;
19414;SDS011;9843;48.882;12.592;2023-05-19T03:23:32;7.80;;;5.00;;
19414;SDS011;9843;48.882;12.592;2023-05-19T03:25:59;9.97;;;4.57;;
19414;SDS011;9843;48.882;12.592;2023-05-19T03:28:27;14.23;;;6.90;;
19414;SDS011;9843;48.882;12.592;2023-05-19T03:30:54;11.60;;;4.87;;
19414;SDS011;9843;48.882;12.592;2023-05-19T03:33:22;6.63;;;5.00;;
19414;SDS011;9843;48.882;12.592;2023-05-19T03:35:51;11.30;;;6.17;;
19414;SDS011;9843;48.882;12.592;2023-05-19T03:38:18;7.63;;;5.20;;
19414;SDS011;9843;48.882;12.592;2023-05-19T03:40:45;9.67;;;4.67;;
19414;SDS011;9843;48.882;12.592;2023-05-19T03:43:12;5.83;;;4.87;;
19414;SDS011;9843;48.882;12.592;2023-05-19T03:45:40;8.50;;;4.77;;
19414;SDS011;9843;48.882;12.592;2023-05-19T03:48:07;6.17;;;5.60;;
19414;SDS011;9843;48.882;12.592;2023-05-19T03:50:35;12.03;;;4.97;;
19414;SDS011;9843;48.882;12.592;2023-05-19T03:53:02;9.67;;;7.03;;
19414;SDS011;9843;48.882;12.592;2023-05-19T03:55:30;10.27;;;5.27;;
19414;SDS011;9843;48.882;12.592;2023-05-19T03:57:57;18.33;;;6.90;;
19414;SDS011;9843;48.882;12.592;2023-05-19T04:00:24;10.93;;;5.80;;
19414;SDS011;9843;48.882;12.592;2023-05-19T04:02:51;11.50;;;6.33;;
19414;SDS011;9843;48.882;12.592;2023-05-19T04:05:18;9.60;;;5.83;;
19414;SDS011;9843;48.882;12.592;2023-05-19T04:07:47;12.80;;;6.10;;
19414;SDS011;9843;48.882;12.592;2023-05-19T04:10:14;13.90;;;6.33;;
19414;SDS011;9843;48.882;12.592;2023-05-19T04:12:41;9.30;;;6.47;;
19414;SDS011;9843;48.882;12.592;2023-05-19T04:15:08;7.37;;;5.23;;
19414;SDS011;9843;48.882;12.592;2023-05-19T04:17:36;23.43;;;7.07;;
19414;SDS011;9843;48.882;12.592;2023-05-19T04:20:03;9.43;;;7.43;;
19414;SDS011;9843;48.882;12.592;2023-05-19T04:22:31;10.77;;;5.73;;
19414;SDS011;9843;48.882;12.592;2023-05-19T04:24:59;10.00;;;5.50;;
19414;SDS011;9843;48.882;12.592;2023-05-19T04:27:28;7.83;;;6.10;;
19414;SDS011;9843;48.882;12.592;2023-05-19T04:29:55;8.63;;;5.67;;
19414;SDS011;9843;48.882;12.592;2023-05-19T04:32:23;8.83;;;5.40;;
19414;SDS011;9843;48.882;12.592;2023-05-19T04:34:50;14.70;;;5.70;;
19414;SDS011;9843;48.882;12.592;2023-05-19T04:37:17;12.40;;;5.90;;
19414;SDS011;9843;48.882;12.592;2023-05-19T04:39:44;11.70;;;6.07;;
19414;SDS011;9843;48.882;12.592;2023-05-19T04:42:13;5.67;;;4.43;;
19414;SDS011;9843;48.882;12.592;2023-05-19T04:44:43;12.50;;;6.13;;
19414;SDS011;9843;48.882;12.592;2023-05-19T04:47:10;10.67;;;5.27;;
19414;SDS011;9843;48.882;12.592;2023-05-19T04:49:38;14.17;;;5.50;;
19414;SDS011;9843;48.882;12.592;2023-05-19T04:52:06;8.43;;;5.13;;
19414;SDS011;9843;48.882;12.592;2023-05-19T04:54:34;10.63;;;5.37;;
19414;SDS011;9843;48.882;12.592;2023-05-19T04:57:01;7.30;;;4.13;;
19414;SDS011;9843;48.882;12.592;2023-05-19T04:59:30;5.60;;;5.00;;
19414;SDS011;9843;48.882;12.592;2023-05-19T05:01:57;10.00;;;4.80;;
19414;SDS011;9843;48.882;12.592;2023-05-19T05:04:24;11.13;;;5.37;;
19414;SDS011;9843;48.882;12.592;2023-05-19T05:06:51;8.40;;;4.97;;
19414;SDS011;9843;48.882;12.592;2023-05-19T05:09:18;8.23;;;5.20;;
19414;SDS011;9843;48.882;12.592;2023-05-19T05:11:45;6.17;;;5.27;;
19414;SDS011;9843;48.882;12.592;2023-05-19T05:14:12;15.73;;;6.13;;
19414;SDS011;9843;48.882;12.592;2023-05-19T05:16:41;10.60;;;5.30;;
19414;SDS011;9843;48.882;12.592;2023-05-19T05:19:09;9.73;;;4.37;;
19414;SDS011;9843;48.882;12.592;2023-05-19T05:21:36;9.03;;;4.80;;
19414;SDS011;9843;48.882;12.592;2023-05-19T05:24:03;9.37;;;4.93;;
19414;SDS011;9843;48.882;12.592;2023-05-19T05:26:32;8.10;;;4.67;;
19414;SDS011;9843;48.882;12.592;2023-05-19T05:28:59;8.57;;;5.03;;
19414;SDS011;9843;48.882;12.592;2023-05-19T05:31:26;8.80;;;4.57;;
19414;SDS011;9843;48.882;12.592;2023-05-19T05:33:55;5.43;;;4.10;;
19414;SDS011;9843;48.882;12.592;2023-05-19T05:36:22;8.57;;;4.97;;
19414;SDS011;9843;48.882;12.592;2023-05-19T05:38:49;8.90;;;5.90;;
19414;SDS011;9843;48.882;12.592;2023-05-19T05:41:16;6.83;;;4.07;;
19414;SDS011;9843;48.882;12.592;2023-05-19T05:43:43;8.70;;;4.47;;
19414;SDS011;9843;48.882;12.592;2023-05-19T05:46:10;10.60;;;5.90;;
19414;SDS011;9843;48.882;12.592;2023-05-19T05:48:37;8.40;;;4.40;;
19414;SDS011;9843;48.882;12.592;2023-05-19T05:51:08;9.27;;;4.30;;
19414;SDS011;9843;48.882;12.592;2023-05-19T05:53:36;11.23;;;5.63;;
19414;SDS011;9843;48.882;12.592;2023-05-19T05:56:07;7.77;;;4.37;;
19414;SDS011;9843;48.882;12.592;2023-05-19T05:58:34;5.13;;;3.87;;
19414;SDS011;9843;48.882;12.592;2023-05-19T06:01:01;10.67;;;4.83;;
19414;SDS011;9843;48.882;12.592;2023-05-19T06:03:29;27.77;;;18.70;;
19414;SDS011;9843;48.882;12.592;2023-05-19T06:05:57;8.97;;;5.33;;
19414;SDS011;9843;48.882;12.592;2023-05-19T06:08:26;19.53;;;5.03;;
19414;SDS011;9843;48.882;12.592;2023-05-19T06:10:53;12.57;;;5.43;;
19414;SDS011;9843;48.882;12.592;2023-05-19T06:13:22;7.53;;;4.50;;
19414;SDS011;9843;48.882;12.592;2023-05-19T06:15:50;9.17;;;4.77;;
19414;SDS011;9843;48.882;12.592;2023-05-19T06:18:17;6.13;;;3.73;;
19414;SDS011;9843;48.882;12.592;2023-05-19T06:20:44;11.73;;;3.90;;
19414;SDS011;9843;48.882;12.592;2023-05-19T06:23:11;8.23;;;4.80;;
19414;SDS011;9843;48.882;12.592;2023-05-19T06:25:40;8.43;;;3.60;;
19414;SDS011;9843;48.882;12.592;2023-05-19T06:28:07;7.13;;;4.23;;
19414;SDS011;9843;48.882;12.592;2023-05-19T06:30:34;5.43;;;3.63;;
19414;SDS011;9843;48.882;12.592;2023-05-19T06:33:01;9.37;;;4.23;;
19414;SDS011;9843;48.882;12.592;2023-05-19T06:35:28;8.70;;;4.30;;
19414;SDS011;9843;48.882;12.592;2023-05-19T06:37:55;4.77;;;3.63;;
19414;SDS011;9843;48.882;12.592;2023-05-19T06:40:22;7.60;;;4.77;;
19414;SDS011;9843;48.882;12.592;2023-05-19T06:42:50;7.73;;;3.63;;
19414;SDS011;9843;48.882;12.592;2023-05-19T06:45:17;12.97;;;4.60;;
19414;SDS011;9843;48.882;12.592;2023-05-19T06:47:46;10.40;;;4.77;;
19414;SDS011;9843;48.882;12.592;2023-05-19T06:50:13;8.33;;;4.10;;
19414;SDS011;9843;48.882;12.592;2023-05-19T06:52:40;6.70;;;3.33;;
19414;SDS011;9843;48.882;12.592;2023-05-19T06:55:08;4.23;;;2.93;;
19414;SDS011;9843;48.882;12.592;2023-05-19T06:57:35;7.87;;;3.67;;
19414;SDS011;9843;48.882;12.592;2023-05-19T07:00:04;10.33;;;3.93;;
19414;SDS011;9843;48.882;12.592;2023-05-19T07:02:34;86.33;;;16.90;;
19414;SDS011;9843;48.882;12.592;2023-05-19T07:05:01;24.87;;;6.80;;
19414;SDS011;9843;48.882;12.592;2023-05-19T07:07:28;7.93;;;3.53;;
19414;SDS011;9843;48.882;12.592;2023-05-19T07:09:55;14.47;;;5.70;;
19414;SDS011;9843;48.882;12.592;2023-05-19T07:12:22;7.43;;;3.60;;
19414;SDS011;9843;48.882;12.592;2023-05-19T07:14:50;13.87;;;5.30;;
19414;SDS011;9843;48.882;12.592;2023-05-19T07:17:18;12.13;;;4.10;;
19414;SDS011;9843;48.882;12.592;2023-05-19T07:19:45;10.87;;;5.20;;
19414;SDS011;9843;48.882;12.592;2023-05-19T07:22:12;8.47;;;3.60;;
19414;SDS011;9843;48.882;12.592;2023-05-19T07:24:40;8.20;;;3.93;;
19414;SDS011;9843;48.882;12.592;2023-05-19T07:27:07;11.37;;;4.80;;
19414;SDS011;9843;48.882;12.592;2023-05-19T07:29:35;11.90;;;4.83;;
19414;SDS011;9843;48.882;12.592;2023-05-19T07:32:02;5.23;;;4.37;;
19414;SDS011;9843;48.882;12.592;2023-05-19T07:34:30;7.13;;;3.23;;
19414;SDS011;9843;48.882;12.592;2023-05-19T07:36:57;10.53;;;2.80;;
19414;SDS011;9843;48.882;12.592;2023-05-19T07:39:26;8.83;;;4.97;;
19414;SDS011;9843;48.882;12.592;2023-05-19T07:41:53;12.07;;;3.93;;
19414;SDS011;9843;48.882;12.592;2023-05-19T07:44:20;5.90;;;4.60;;
19414;SDS011;9843;48.882;12.592;2023-05-19T07:46:47;12.03;;;5.50;;
19414;SDS011;9843;48.882;12.592;2023-05-19T07:49:14;6.93;;;3.40;;
19414;SDS011;9843;48.882;12.592;2023-05-19T07:51:43;9.57;;;5.17;;
19414;SDS011;9843;48.882;12.592;2023-05-19T07:54:10;6.53;;;2.67;;
19414;SDS011;9843;48.882;12.592;2023-05-19T07:56:37;7.93;;;3.50;;
19414;SDS011;9843;48.882;12.592;2023-05-19T07:59:04;10.27;;;5.10;;
19414;SDS011;9843;48.882;12.592;2023-05-19T08:01:32;6.23;;;2.60;;
19414;SDS011;9843;48.882;12.592;2023-05-19T08:03:59;5.40;;;2.60;;
19414;SDS011;9843;48.882;12.592;2023-05-19T08:06:26;6.73;;;2.67;;
19414;SDS011;9843;48.882;12.592;2023-05-19T08:08:55;5.07;;;3.40;;
19414;SDS011;9843;48.882;12.592;2023-05-19T08:11:22;7.03;;;3.23;;
19414;SDS011;9843;48.882;12.592;2023-05-19T08:13:49;3.90;;;3.10;;
19414;SDS011;9843;48.882;12.592;2023-05-19T08:16:16;6.00;;;3.30;;
19414;SDS011;9843;48.882;12.592;2023-05-19T08:18:44;5.30;;;2.60;;
19414;SDS011;9843;48.882;12.592;2023-05-19T08:21:11;5.10;;;2.70;;
19414;SDS011;9843;48.882;12.592;2023-05-19T08:23:38;7.03;;;2.20;;
19414;SDS011;9843;48.882;12.592;2023-05-19T08:26:06;4.77;;;2.30;;
19414;SDS011;9843;48.882;12.592;2023-05-19T08:28:33;6.50;;;3.57;;
19414;SDS011;9843;48.882;12.592;2023-05-19T08:31:00;7.53;;;3.57;;
19414;SDS011;9843;48.882;12.592;2023-05-19T08:33:27;6.97;;;2.37;;
19414;SDS011;9843;48.882;12.592;2023-05-19T08:35:54;9.37;;;3.23;;
19414;SDS011;9843;48.882;12.592;2023-05-19T08:38:22;9.63;;;3.35;;
19414;SDS011;9843;48.882;12.592;2023-05-19T08:40:49;5.90;;;2.13;;
19414;SDS011;9843;48.882;12.592;2023-05-19T08:43:18;6.60;;;3.10;;
19414;SDS011;9843;48.882;12.592;2023-05-19T08:45:45;10.65;;;2.78;;
19414;SDS011;9843;48.882;12.592;2023-05-19T08:48:12;5.47;;;2.50;;
19414;SDS011;9843;48.882;12.592;2023-05-19T08:50:40;10.18;;;3.25;;
19414;SDS011;9843;48.882;12.592;2023-05-19T08:53:10;6.03;;;3.67;;
19414;SDS011;9843;48.882;12.592;2023-05-19T08:55:40;3.75;;;2.33;;
19414;SDS011;9843;48.882;12.592;2023-05-19T08:58:08;7.82;;;2.63;;
19414;SDS011;9843;48.882;12.592;2023-05-19T09:00:38;6.90;;;2.35;;
19414;SDS011;9843;48.882;12.592;2023-05-19T09:03:05;7.13;;;3.08;;
19414;SDS011;9843;48.882;12.592;2023-05-19T09:05:33;8.15;;;2.85;;
19414;SDS011;9843;48.882;12.592;2023-05-19T09:08:00;4.40;;;1.92;;
19414;SDS011;9843;48.882;12.592;2023-05-19T09:10:28;4.33;;;3.40;;
19414;SDS011;9843;48.882;12.592;2023-05-19T09:12:55;9.43;;;4.43;;
19414;SDS011;9843;48.882;12.592;2023-05-19T09:15:24;5.40;;;2.53;;
19414;SDS011;9843;48.882;12.592;2023-05-19T09:17:56;5.77;;;2.40;;
19414;SDS011;9843;48.882;12.592;2023-05-19T09:20:29;7.80;;;2.97;;
19414;SDS011;9843;48.882;12.592;2023-05-19T09:22:56;3.03;;;2.73;;
19414;SDS011;9843;48.882;12.592;2023-05-19T09:25:25;5.60;;;2.87;;
19414;SDS011;9843;48.882;12.592;2023-05-19T09:27:53;5.57;;;2.73;;
19414;SDS011;9843;48.882;12.592;2023-05-19T09:30:20;8.03;;;2.50;;
19414;SDS011;9843;48.882;12.592;2023-05-19T09:32:48;6.80;;;2.73;;
19414;SDS011;9843;48.882;12.592;2023-05-19T09:35:16;2.60;;;2.03;;
19414;SDS011;9843;48.882;12.592;2023-05-19T09:37:44;5.60;;;2.63;;
19414;SDS011;9843;48.882;12.592;2023-05-19T09:40:12;7.40;;;2.23;;
19414;SDS011;9843;48.882;12.592;2023-05-19T09:42:40;5.32;;;2.00;;
19414;SDS011;9843;48.882;12.592;2023-05-19T09:45:08;6.05;;;3.05;;
19414;SDS011;9843;48.882;12.592;2023-05-19T09:47:35;12.30;;;2.20;;
19414;SDS011;9843;48.882;12.592;2023-05-19T09:50:03;2.47;;;1.60;;
19414;SDS011;9843;48.882;12.592;2023-05-19T09:52:34;4.93;;;2.00;;
19414;SDS011;9843;48.882;12.592;2023-05-19T09:55:02;5.63;;;1.65;;
19414;SDS011;9843;48.882;12.592;2023-05-19T09:57:33;6.03;;;2.25;;
19414;SDS011;9843;48.882;12.592;2023-05-19T10:00:02;6.97;;;2.17;;
19414;SDS011;9843;48.882;12.592;2023-05-19T10:02:35;3.25;;;1.70;;
19414;SDS011;9843;48.882;12.592;2023-05-19T10:05:02;6.35;;;2.20;;
19414;SDS011;9843;48.882;12.592;2023-05-19T10:07:30;8.52;;;2.72;;
19414;SDS011;9843;48.882;12.592;2023-05-19T10:09:59;2.53;;;1.92;;
19414;SDS011;9843;48.882;12.592;2023-05-19T10:12:26;6.45;;;1.83;;
19414;SDS011;9843;48.882;12.592;2023-05-19T10:14:53;2.95;;;1.40;;
19414;SDS011;9843;48.882;12.592;2023-05-19T10:17:20;3.70;;;1.95;;
19414;SDS011;9843;48.882;12.592;2023-05-19T10:19:48;3.38;;;1.80;;
19414;SDS011;9843;48.882;12.592;2023-05-19T10:22:16;4.10;;;1.65;;
19414;SDS011;9843;48.882;12.592;2023-05-19T10:24:44;5.93;;;2.15;;
19414;SDS011;9843;48.882;12.592;2023-05-19T10:27:12;3.95;;;1.55;;
19414;SDS011;9843;48.882;12.592;2023-05-19T10:29:42;3.95;;;2.17;;
19414;SDS011;9843;48.882;12.592;2023-05-19T10:32:12;5.72;;;2.22;;
19414;SDS011;9843;48.882;12.592;2023-05-19T10:34:52;7.30;;;1.70;;
19414;SDS011;9843;48.882;12.592;2023-05-19T10:37:22;3.22;;;1.80;;
19414;SDS011;9843;48.882;12.592;2023-05-19T10:39:52;3.35;;;1.60;;
19414;SDS011;9843;48.882;12.592;2023-05-19T10:42:24;4.68;;;1.92;;
19414;SDS011;9843;48.882;12.592;2023-05-19T10:44:57;4.03;;;2.05;;
19414;SDS011;9843;48.882;12.592;2023-05-19T10:47:28;7.43;;;2.17;;
19414;SDS011;9843;48.882;12.592;2023-05-19T10:49:56;6.25;;;1.92;;
19414;SDS011;9843;48.882;12.592;2023-05-19T10:52:25;5.78;;;2.40;;
19414;SDS011;9843;48.882;12.592;2023-05-19T10:54:54;4.15;;;1.58;;
19414;SDS011;9843;48.882;12.592;2023-05-19T10:57:25;3.63;;;1.60;;
19414;SDS011;9843;48.882;12.592;2023-05-19T10:59:55;6.15;;;2.53;;
19414;SDS011;9843;48.882;12.592;2023-05-19T11:02:37;5.60;;;1.50;;
19414;SDS011;9843;48.882;12.592;2023-05-19T11:05:08;5.60;;;2.03;;
19414;SDS011;9843;48.882;12.592;2023-05-19T11:07:35;7.85;;;2.42;;
19414;SDS011;9843;48.882;12.592;2023-05-19T11:10:05;5.75;;;1.75;;
19414;SDS011;9843;48.882;12.592;2023-05-19T11:12:40;4.82;;;2.10;;
19414;SDS011;9843;48.882;12.592;2023-05-19T11:15:09;5.57;;;1.92;;
19414;SDS011;9843;48.882;12.592;2023-05-19T11:17:38;4.93;;;2.53;;
19414;SDS011;9843;48.882;12.592;2023-05-19T11:20:06;3.63;;;1.85;;
19414;SDS011;9843;48.882;12.592;2023-05-19T11:22:34;5.15;;;2.03;;
19414;SDS011;9843;48.882;12.592;2023-05-19T11:25:02;2.80;;;1.55;;
19414;SDS011;9843;48.882;12.592;2023-05-19T11:27:32;2.53;;;1.90;;
19414;SDS011;9843;48.882;12.592;2023-05-19T11:30:08;6.68;;;1.60;;
19414;SDS011;9843;48.882;12.592;2023-05-19T11:32:38;3.55;;;1.40;;
19414;SDS011;9843;48.882;12.592;2023-05-19T11:35:08;3.78;;;1.73;;
19414;SDS011;9843;48.882;12.592;2023-05-19T11:37:35;3.45;;;2.25;;
19414;SDS011;9843;48.882;12.592;2023-05-19T11:40:04;5.90;;;1.95;;
19414;SDS011;9843;48.882;12.592;2023-05-19T11:42:32;4.65;;;2.33;;
19414;SDS011;9843;48.882;12.592;2023-05-19T11:45:00;4.32;;;1.73;;
19414;SDS011;9843;48.882;12.592;2023-05-19T11:47:29;3.25;;;2.17;;
19414;SDS011;9843;48.882;12.592;2023-05-19T11:49:57;5.05;;;1.98;;
19414;SDS011;9843;48.882;12.592;2023-05-19T11:52:24;8.55;;;2.67;;
19414;SDS011;9843;48.882;12.592;2023-05-19T11:54:52;2.95;;;1.30;;
19414;SDS011;9843;48.882;12.592;2023-05-19T11:57:20;5.15;;;2.08;;
19414;SDS011;9843;48.882;12.592;2023-05-19T11:59:47;5.28;;;2.38;;
19414;SDS011;9843;48.882;12.592;2023-05-19T12:02:16;3.60;;;2.63;;
19414;SDS011;9843;48.882;12.592;2023-05-19T12:04:45;4.88;;;2.20;;
19414;SDS011;9843;48.882;12.592;2023-05-19T12:07:14;6.97;;;2.17;;
19414;SDS011;9843;48.882;12.592;2023-05-19T12:09:42;6.75;;;3.15;;
19414;SDS011;9843;48.882;12.592;2023-05-19T12:12:11;5.00;;;3.15;;
19414;SDS011;9843;48.882;12.592;2023-05-19T12:14:39;3.75;;;2.70;;
19414;SDS011;9843;48.882;12.592;2023-05-19T12:17:09;5.80;;;1.90;;
19414;SDS011;9843;48.882;12.592;2023-05-19T12:19:37;4.60;;;2.10;;
19414;SDS011;9843;48.882;12.592;2023-05-19T12:22:05;6.47;;;3.60;;
19414;SDS011;9843;48.882;12.592;2023-05-19T12:24:33;5.57;;;2.03;;
19414;SDS011;9843;48.882;12.592;2023-05-19T12:27:04;5.57;;;2.58;;
19414;SDS011;9843;48.882;12.592;2023-05-19T12:29:32;15.80;;;5.63;;
19414;SDS011;9843;48.882;12.592;2023-05-19T12:31:59;3.90;;;2.38;;
19414;SDS011;9843;48.882;12.592;2023-05-19T12:34:26;2.83;;;2.17;;
19414;SDS011;9843;48.882;12.592;2023-05-19T12:36:54;4.30;;;2.53;;
19414;SDS011;9843;48.882;12.592;2023-05-19T12:39:22;3.08;;;1.92;;
19414;SDS011;9843;48.882;12.592;2023-05-19T12:41:50;5.82;;;3.03;;
19414;SDS011;9843;48.882;12.592;2023-05-19T12:44:17;4.47;;;2.65;;
19414;SDS011;9843;48.882;12.592;2023-05-19T12:46:44;5.32;;;2.30;;
19414;SDS011;9843;48.882;12.592;2023-05-19T12:49:11;4.28;;;2.80;;
19414;SDS011;9843;48.882;12.592;2023-05-19T12:51:38;7.20;;;2.67;;
19414;SDS011;9843;48.882;12.592;2023-05-19T12:54:05;10.90;;;2.60;;
19414;SDS011;9843;48.882;12.592;2023-05-19T12:56:34;4.60;;;2.35;;
19414;SDS011;9843;48.882;12.592;2023-05-19T12:59:01;6.32;;;1.83;;
19414;SDS011;9843;48.882;12.592;2023-05-19T13:01:28;3.03;;;2.25;;
19414;SDS011;9843;48.882;12.592;2023-05-19T13:03:55;4.68;;;2.65;;
19414;SDS011;9843;48.882;12.592;2023-05-19T13:06:22;13.65;;;4.18;;
19414;SDS011;9843;48.882;12.592;2023-05-19T13:08:49;5.72;;;2.67;;
19414;SDS011;9843;48.882;12.592;2023-05-19T13:11:16;4.20;;;2.42;;
19414;SDS011;9843;48.882;12.592;2023-05-19T13:13:45;3.22;;;2.20;;
19414;SDS011;9843;48.882;12.592;2023-05-19T13:16:12;2.78;;;2.00;;
19414;SDS011;9843;48.882;12.592;2023-05-19T13:18:39;3.05;;;2.63;;
19414;SDS011;9843;48.882;12.592;2023-05-19T13:21:06;4.43;;;2.70;;
19414;SDS011;9843;48.882;12.592;2023-05-19T13:23:33;10.18;;;4.07;;
19414;SDS011;9843;48.882;12.592;2023-05-19T13:26:00;6.00;;;2.90;;
19414;SDS011;9843;48.882;12.592;2023-05-19T13:28:28;5.15;;;2.83;;
19414;SDS011;9843;48.882;12.592;2023-05-19T13:30:57;3.43;;;2.27;;
19414;SDS011;9843;48.882;12.592;2023-05-19T13:33:24;7.78;;;3.22;;
19414;SDS011;9843;48.882;12.592;2023-05-19T13:35:51;3.90;;;2.40;;
19414;SDS011;9843;48.882;12.592;2023-05-19T13:38:18;3.93;;;2.57;;
19414;SDS011;9843;48.882;12.592;2023-05-19T13:40:45;8.82;;;4.18;;
19414;SDS011;9843;48.882;12.592;2023-05-19T13:43:12;4.13;;;2.37;;
19414;SDS011;9843;48.882;12.592;2023-05-19T13:45:39;5.43;;;2.93;;
19414;SDS011;9843;48.882;12.592;2023-05-19T13:48:09;3.73;;;2.33;;
19414;SDS011;9843;48.882;12.592;2023-05-19T13:50:37;4.17;;;2.60;;
19414;SDS011;9843;48.882;12.592;2023-05-19T13:53:04;4.13;;;3.00;;
19414;SDS011;9843;48.882;12.592;2023-05-19T13:55:31;6.63;;;3.57;;
19414;SDS011;9843;48.882;12.592;2023-05-19T13:57:58;3.83;;;2.83;;
19414;SDS011;9843;48.882;12.592;2023-05-19T14:00:25;7.07;;;3.80;;
19414;SDS011;9843;48.882;12.592;2023-05-19T14:02:52;5.47;;;4.00;;
19414;SDS011;9843;48.882;12.592;2023-05-19T14:05:21;3.13;;;2.83;;
19414;SDS011;9843;48.882;12.592;2023-05-19T14:07:48;2.77;;;2.20;;
19414;SDS011;9843;48.882;12.592;2023-05-19T14:10:15;5.63;;;2.83;;
19414;SDS011;9843;48.882;12.592;2023-05-19T14:12:42;7.17;;;3.23;;
19414;SDS011;9843;48.882;12.592;2023-05-19T14:15:09;5.07;;;3.50;;
19414;SDS011;9843;48.882;12.592;2023-05-19T14:17:36;8.97;;;4.03;;
19414;SDS011;9843;48.882;12.592;2023-05-19T14:20:04;9.97;;;2.23;;
19414;SDS011;9843;48.882;12.592;2023-05-19T14:22:32;4.17;;;2.87;;
19414;SDS011;9843;48.882;12.592;2023-05-19T14:25:00;8.53;;;2.70;;
19414;SDS011;9843;48.882;12.592;2023-05-19T14:27:27;7.17;;;2.40;;
19414;SDS011;9843;48.882;12.592;2023-05-19T14:29:54;5.80;;;3.20;;
19414;SDS011;9843;48.882;12.592;2023-05-19T14:32:21;3.63;;;2.67;;
19414;SDS011;9843;48.882;12.592;2023-05-19T14:34:48;4.37;;;3.03;;
19414;SDS011;9843;48.882;12.592;2023-05-19T14:37:16;4.67;;;2.40;;
19414;SDS011;9843;48.882;12.592;2023-05-19T14:39:45;3.03;;;2.00;;
19414;SDS011;9843;48.882;12.592;2023-05-19T14:42:12;4.27;;;2.47;;
19414;SDS011;9843;48.882;12.592;2023-05-19T14:44:39;7.60;;;3.40;;
19414;SDS011;9843;48.882;12.592;2023-05-19T14:47:06;5.20;;;3.43;;
19414;SDS011;9843;48.882;12.592;2023-05-19T14:49:35;6.33;;;2.20;;
19414;SDS011;9843;48.882;12.592;2023-05-19T14:52:02;1.87;;;1.70;;
19414;SDS011;9843;48.882;12.592;2023-05-19T14:54:29;4.20;;;3.10;;